createdAt,value
2023-03-27T00:01:17.956Z,3.30
2023-03-27T00:03:52.215Z,3.40
2023-03-27T00:06:26.155Z,3.27
2023-03-27T00:08:58.989Z,3.20
2023-03-27T00:11:31.737Z,3.40
2023-03-27T00:14:04.873Z,3.30
2023-03-27T00:16:37.858Z,3.30
2023-03-27T00:19:11.634Z,3.50
2023-03-27T00:21:47.895Z,3.30
2023-03-27T00:24:20.808Z,3.30
2023-03-27T00:26:53.967Z,3.30
2023-03-27T00:29:26.885Z,3.30
2023-03-27T00:32:01.296Z,3.20
2023-03-27T00:34:34.512Z,3.20
2023-03-27T00:37:07.611Z,3.10
2023-03-27T00:39:40.981Z,3.10
2023-03-27T00:42:18.361Z,3.10
2023-03-27T00:44:51.892Z,3.10
2023-03-27T00:47:26.695Z,3.00
2023-03-27T00:49:59.655Z,3.00
2023-03-27T00:52:33.816Z,2.70
2023-03-27T00:55:08.469Z,2.80
2023-03-27T00:57:46.384Z,3.00
2023-03-27T01:00:20.726Z,2.60
2023-03-27T01:02:54.860Z,2.70
2023-03-27T01:05:29.214Z,2.60
2023-03-27T01:08:02.884Z,2.70
2023-03-27T01:10:49.667Z,2.70
2023-03-27T01:13:44.468Z,2.70
2023-03-27T01:16:22.430Z,2.70
2023-03-27T01:18:57.263Z,2.70
2023-03-27T01:21:44.626Z,2.60
2023-03-27T01:24:38.836Z,2.70
2023-03-27T01:27:17.689Z,2.60
2023-03-27T01:29:58.985Z,2.77
2023-03-27T01:32:57.796Z,2.90
2023-03-27T01:35:44.761Z,2.70
2023-03-27T01:38:32.158Z,2.60
2023-03-27T01:41:07.361Z,2.60
2023-03-27T01:43:54.241Z,2.70
2023-03-27T01:46:35.080Z,2.87
2023-03-27T01:49:15.881Z,2.70
2023-03-27T01:51:59.661Z,2.80
2023-03-27T01:54:40.835Z,2.80
2023-03-27T01:57:22.347Z,2.80
2023-03-27T01:59:57.616Z,2.90
2023-03-27T02:02:34.127Z,2.80
2023-03-27T02:05:18.372Z,2.80
2023-03-27T02:07:56.470Z,2.43
2023-03-27T02:10:30.986Z,2.50
2023-03-27T02:13:05.604Z,2.50
2023-03-27T02:15:40.516Z,2.50
2023-03-27T02:18:15.208Z,2.70
2023-03-27T02:20:52.343Z,2.60
2023-03-27T02:23:25.184Z,2.67
2023-03-27T02:25:58.131Z,2.50
2023-03-27T02:28:32.749Z,2.60
2023-03-27T02:31:32.218Z,2.60
2023-03-27T02:34:29.042Z,2.70
2023-03-27T02:37:33.253Z,2.60
2023-03-27T02:40:15.419Z,2.60
2023-03-27T02:42:59.910Z,2.60
2023-03-27T02:46:00.622Z,2.70
2023-03-27T02:48:38.052Z,2.70
2023-03-27T02:51:18.428Z,2.70
2023-03-27T02:53:53.019Z,2.80
2023-03-27T02:56:27.920Z,2.80
2023-03-27T02:59:02.566Z,3.20
2023-03-27T03:01:36.102Z,3.40
2023-03-27T03:04:14.263Z,3.00
2023-03-27T03:06:47.637Z,3.00
2023-03-27T03:09:21.096Z,2.80
2023-03-27T03:11:59.060Z,2.80
2023-03-27T03:14:42.910Z,2.70
2023-03-27T03:17:16.316Z,2.90
2023-03-27T03:19:49.138Z,2.90
2023-03-27T03:22:21.890Z,3.00
2023-03-27T03:24:54.796Z,2.90
2023-03-27T03:27:28.153Z,2.70
2023-03-27T03:30:01.026Z,2.70
2023-03-27T03:32:34.008Z,2.70
2023-03-27T03:35:06.875Z,2.77
2023-03-27T03:37:40.834Z,2.80
2023-03-27T03:40:14.322Z,2.80
2023-03-27T03:42:55.991Z,2.90
2023-03-27T03:45:28.640Z,2.80
2023-03-27T03:48:01.771Z,2.80
2023-03-27T03:50:34.846Z,2.90
2023-03-27T03:53:07.491Z,2.80
2023-03-27T03:55:40.337Z,2.90
2023-03-27T03:58:13.089Z,3.10
2023-03-27T04:00:46.532Z,3.20
2023-03-27T04:03:19.658Z,3.00
2023-03-27T04:05:52.845Z,2.70
2023-03-27T04:08:25.735Z,2.73
2023-03-27T04:10:58.942Z,2.80
2023-03-27T04:13:31.942Z,2.90
2023-03-27T04:16:05.560Z,3.00
2023-03-27T04:18:39.827Z,2.70
2023-03-27T04:21:20.062Z,2.90
2023-03-27T04:23:53.223Z,2.90
2023-03-27T04:26:27.438Z,2.80
2023-03-27T04:29:10.537Z,2.90
2023-03-27T04:31:40.136Z,2.90
2023-03-27T04:34:13.184Z,3.00
2023-03-27T04:36:45.984Z,2.80
2023-03-27T04:39:19.223Z,2.80
2023-03-27T04:41:52.154Z,2.70
2023-03-27T04:44:24.944Z,2.70
2023-03-27T04:46:58.025Z,2.70
2023-03-27T04:49:30.948Z,2.60
2023-03-27T04:52:04.029Z,2.60
2023-03-27T04:54:36.942Z,2.80
2023-03-27T04:57:10.294Z,2.80
2023-03-27T04:59:43.177Z,2.80
2023-03-27T05:02:16.718Z,2.90
2023-03-27T05:04:50.735Z,2.70
2023-03-27T05:07:23.574Z,2.70
2023-03-27T05:09:56.571Z,2.60
2023-03-27T05:12:29.875Z,2.70
2023-03-27T05:15:04.034Z,2.80
2023-03-27T05:17:37.094Z,2.80
2023-03-27T05:20:10.697Z,2.70
2023-03-27T05:22:44.026Z,2.70
2023-03-27T05:25:17.089Z,2.80
2023-03-27T05:27:54.145Z,2.70
2023-03-27T05:30:28.736Z,2.60
2023-03-27T05:33:01.776Z,3.00
2023-03-27T05:35:35.006Z,3.10
2023-03-27T05:38:08.491Z,3.00
2023-03-27T05:40:41.978Z,2.70
2023-03-27T05:43:15.122Z,2.60
2023-03-27T05:45:48.019Z,2.40
2023-03-27T05:48:20.936Z,2.67
2023-03-27T05:50:54.270Z,2.60
2023-03-27T05:53:28.263Z,2.70
2023-03-27T05:56:02.911Z,2.60
2023-03-27T05:58:35.388Z,2.70
2023-03-27T06:01:12.988Z,2.90
2023-03-27T06:03:46.239Z,2.70
2023-03-27T06:06:19.937Z,2.60
2023-03-27T06:08:52.839Z,2.50
2023-03-27T06:11:25.879Z,2.40
2023-03-27T06:13:58.960Z,2.80
2023-03-27T06:16:31.829Z,2.60
2023-03-27T06:19:05.132Z,2.47
2023-03-27T06:21:39.425Z,2.80
2023-03-27T06:24:12.420Z,2.70
2023-03-27T06:26:45.442Z,2.60
2023-03-27T06:29:18.341Z,2.70
2023-03-27T06:31:51.485Z,2.30
2023-03-27T06:34:24.606Z,2.30
2023-03-27T06:36:57.599Z,2.27
2023-03-27T06:39:30.528Z,2.30
2023-03-27T06:42:03.529Z,2.30
2023-03-27T06:44:36.516Z,2.20
2023-03-27T06:47:09.365Z,2.20
2023-03-27T06:49:42.790Z,2.10
2023-03-27T06:52:15.691Z,2.10
2023-03-27T06:54:48.968Z,2.20
2023-03-27T06:57:21.950Z,2.10
2023-03-27T06:59:55.398Z,2.20
2023-03-27T07:02:28.403Z,2.10
2023-03-27T07:05:04.946Z,2.10
2023-03-27T07:07:36.824Z,2.27
2023-03-27T07:10:12.069Z,2.20
2023-03-27T07:12:46.186Z,2.30
2023-03-27T07:15:19.932Z,2.30
2023-03-27T07:18:04.031Z,2.47
2023-03-27T07:20:38.255Z,2.77
2023-03-27T07:23:11.341Z,2.37
2023-03-27T07:25:44.251Z,2.40
2023-03-27T07:28:19.291Z,2.53
2023-03-27T07:30:52.282Z,2.43
2023-03-27T07:33:25.235Z,2.40
2023-03-27T07:35:58.764Z,2.50
2023-03-27T07:38:31.948Z,2.60
2023-03-27T07:41:05.945Z,2.40
2023-03-27T07:43:38.739Z,2.50
2023-03-27T07:46:11.417Z,2.53
2023-03-27T07:48:44.172Z,2.60
2023-03-27T07:51:17.094Z,2.40
2023-03-27T07:53:51.094Z,2.47
2023-03-27T07:56:25.206Z,2.30
2023-03-27T07:58:57.975Z,2.20
2023-03-27T08:01:31.111Z,2.30
2023-03-27T08:04:04.125Z,2.30
2023-03-27T08:06:41.315Z,2.20
2023-03-27T08:09:14.866Z,2.20
2023-03-27T08:11:47.788Z,2.17
2023-03-27T08:14:20.710Z,2.10
2023-03-27T08:16:57.653Z,2.20
2023-03-27T08:19:27.595Z,2.30
2023-03-27T08:22:01.713Z,2.20
2023-03-27T08:24:34.704Z,2.30
2023-03-27T08:27:08.123Z,2.40
2023-03-27T08:29:40.921Z,2.40
2023-03-27T08:32:13.781Z,2.30
2023-03-27T08:34:47.500Z,2.30
2023-03-27T08:37:20.810Z,2.20
2023-03-27T08:39:53.974Z,2.20
2023-03-27T08:42:29.388Z,2.30
2023-03-27T08:45:04.168Z,2.30
2023-03-27T08:47:47.736Z,2.30
2023-03-27T08:50:38.103Z,2.40
2023-03-27T08:53:12.762Z,2.50
2023-03-27T08:55:47.257Z,2.50
2023-03-27T08:58:24.209Z,2.70
2023-03-27T09:00:59.192Z,2.60
2023-03-27T09:03:37.629Z,2.50
2023-03-27T09:06:15.349Z,2.40
2023-03-27T09:08:57.037Z,2.27
2023-03-27T09:11:51.579Z,2.20
2023-03-27T09:14:29.519Z,2.40
2023-03-27T09:17:04.635Z,2.30
2023-03-27T09:19:42.796Z,2.20
2023-03-27T09:22:30.013Z,2.40
2023-03-27T09:25:04.549Z,2.50
2023-03-27T09:27:39.736Z,2.40
2023-03-27T09:30:26.642Z,2.60
2023-03-27T09:33:09.418Z,2.50
2023-03-27T09:35:42.373Z,2.50
2023-03-27T09:38:41.312Z,3.40
2023-03-27T09:41:19.238Z,2.90
2023-03-27T09:44:02.952Z,2.60
2023-03-27T09:46:37.889Z,2.70
2023-03-27T09:49:22.313Z,2.60
2023-03-27T09:51:56.455Z,2.50
2023-03-27T09:54:34.713Z,2.40
2023-03-27T09:57:13.246Z,2.40
2023-03-27T10:00:00.673Z,2.30
2023-03-27T10:02:34.688Z,2.53
2023-03-27T10:05:14.365Z,2.50
2023-03-27T10:07:47.781Z,2.30
2023-03-27T10:10:23.027Z,2.30
2023-03-27T10:13:01.490Z,2.40
2023-03-27T10:15:42.132Z,2.40
2023-03-27T10:18:25.774Z,2.50
2023-03-27T10:21:00.621Z,2.50
2023-03-27T10:23:35.677Z,2.50
2023-03-27T10:26:10.517Z,2.60
2023-03-27T10:28:44.909Z,2.60
2023-03-27T10:31:32.041Z,2.73
2023-03-27T10:34:06.893Z,2.60
2023-03-27T10:36:41.383Z,2.60
2023-03-27T10:39:18.265Z,2.60
2023-03-27T10:41:52.301Z,2.60
2023-03-27T10:44:27.639Z,2.50
2023-03-27T10:47:01.410Z,2.70
2023-03-27T10:50:07.474Z,2.70
2023-03-27T10:53:15.414Z,2.70
2023-03-27T10:55:58.909Z,2.80
2023-03-27T10:58:36.495Z,2.90
2023-03-27T11:01:20.685Z,2.70
2023-03-27T11:03:55.680Z,2.70
2023-03-27T11:06:30.812Z,2.63
2023-03-27T11:09:14.454Z,2.50
2023-03-27T11:12:00.454Z,2.50
2023-03-27T11:14:44.452Z,2.57
2023-03-27T11:17:19.670Z,2.70
2023-03-27T11:19:54.890Z,2.60
2023-03-27T11:22:38.471Z,2.60
2023-03-27T11:25:38.807Z,2.73
2023-03-27T11:28:45.081Z,2.50
2023-03-27T11:31:36.103Z,2.70
2023-03-27T11:34:28.912Z,2.60
2023-03-27T11:37:01.986Z,2.80
2023-03-27T11:39:45.773Z,2.80
2023-03-27T11:42:26.657Z,2.80
2023-03-27T11:45:00.749Z,2.80
2023-03-27T11:47:44.954Z,2.90
2023-03-27T11:50:29.278Z,3.10
2023-03-27T11:53:27.050Z,2.90
2023-03-27T11:56:07.877Z,2.80
2023-03-27T11:58:42.547Z,2.83
2023-03-27T12:01:25.909Z,2.90
2023-03-27T12:04:03.937Z,2.87
2023-03-27T12:07:04.686Z,2.90
2023-03-27T12:09:58.945Z,2.90
2023-03-27T12:13:07.204Z,2.90
2023-03-27T12:16:03.109Z,2.70
2023-03-27T12:19:08.076Z,2.83
2023-03-27T12:21:53.475Z,3.00
2023-03-27T12:24:58.998Z,3.00
2023-03-27T12:27:37.192Z,3.00
2023-03-27T12:30:20.630Z,3.00
2023-03-27T12:33:10.493Z,3.00
2023-03-27T12:35:54.513Z,3.00
2023-03-27T12:38:34.820Z,3.20
2023-03-27T12:41:27.714Z,3.00
2023-03-27T12:44:02.538Z,3.00
2023-03-27T12:46:43.002Z,3.00
2023-03-27T12:49:17.933Z,3.10
2023-03-27T12:52:02.038Z,3.10
2023-03-27T12:54:36.475Z,2.80
2023-03-27T12:57:24.033Z,2.90
2023-03-27T13:00:05.811Z,2.83
2023-03-27T13:03:03.860Z,2.80
2023-03-27T13:05:41.638Z,2.80
2023-03-27T13:08:19.559Z,2.83
2023-03-27T13:11:01.531Z,3.00
2023-03-27T13:14:01.207Z,3.10
2023-03-27T13:16:42.387Z,2.80
2023-03-27T13:19:51.447Z,3.00
2023-03-27T13:22:33.233Z,3.20
2023-03-27T13:25:22.740Z,3.10
2023-03-27T13:28:19.795Z,3.00
2023-03-27T13:30:54.884Z,3.00
2023-03-27T13:33:39.081Z,3.17
2023-03-27T13:36:20.741Z,3.20
2023-03-27T13:38:58.996Z,3.30
2023-03-27T13:41:52.506Z,3.50
2023-03-27T13:44:43.758Z,3.20
2023-03-27T13:47:39.929Z,3.20
2023-03-27T13:50:23.979Z,3.20
2023-03-27T13:53:23.635Z,3.03
2023-03-27T13:56:07.008Z,3.30
2023-03-27T13:58:57.802Z,3.00
2023-03-27T14:01:50.307Z,2.83
2023-03-27T14:04:35.421Z,3.10
2023-03-27T14:07:36.103Z,3.00
2023-03-27T14:10:29.304Z,3.00
2023-03-27T14:13:23.950Z,2.97
2023-03-27T14:16:21.724Z,3.00
2023-03-27T14:19:23.844Z,3.10
2023-03-27T14:21:59.486Z,3.10
2023-03-27T14:24:49.024Z,3.10
2023-03-27T14:27:26.195Z,3.20
2023-03-27T14:30:22.953Z,3.30
2023-03-27T14:32:58.178Z,3.20
2023-03-27T14:35:36.336Z,3.20
2023-03-27T14:38:11.001Z,3.00
2023-03-27T14:40:50.104Z,3.00
2023-03-27T14:43:24.072Z,3.00
2023-03-27T14:45:59.263Z,3.00
2023-03-27T14:48:34.075Z,3.00
2023-03-27T14:51:09.314Z,2.90
2023-03-27T14:53:45.301Z,2.93
2023-03-27T14:56:29.289Z,2.93
2023-03-27T14:59:07.290Z,2.90
2023-03-27T15:01:40.903Z,2.90
2023-03-27T15:04:15.405Z,2.80
2023-03-27T15:06:48.567Z,2.80
2023-03-27T15:09:22.460Z,2.77
2023-03-27T15:12:00.862Z,2.90
2023-03-27T15:14:35.356Z,2.70
2023-03-27T15:17:19.556Z,2.90
2023-03-27T15:20:10.809Z,2.80
2023-03-27T15:22:45.436Z,2.90
2023-03-27T15:25:21.463Z,2.90
2023-03-27T15:27:58.754Z,2.90
2023-03-27T15:30:42.546Z,2.90
2023-03-27T15:33:18.302Z,3.10
2023-03-27T15:35:57.899Z,3.10
2023-03-27T15:38:36.445Z,3.00
2023-03-27T15:41:14.420Z,3.00
2023-03-27T15:43:48.526Z,2.90
2023-03-27T15:46:26.940Z,3.00
2023-03-27T15:49:00.144Z,3.20
2023-03-27T15:51:37.134Z,3.13
2023-03-27T15:54:13.301Z,3.00
2023-03-27T15:56:47.343Z,3.10
2023-03-27T15:59:21.085Z,3.00
2023-03-27T16:01:56.473Z,3.00
2023-03-27T16:04:41.194Z,3.10
2023-03-27T16:07:21.764Z,2.97
2023-03-27T16:10:03.340Z,3.20
2023-03-27T16:12:53.841Z,3.10
2023-03-27T16:15:38.189Z,3.20
2023-03-27T16:18:25.379Z,3.20
2023-03-27T16:20:59.994Z,3.20
2023-03-27T16:23:33.019Z,3.00
2023-03-27T16:26:07.215Z,3.10
2023-03-27T16:28:40.363Z,3.20
2023-03-27T16:31:17.913Z,3.20
2023-03-27T16:33:51.392Z,3.50
2023-03-27T16:36:36.825Z,3.00
2023-03-27T16:39:10.869Z,3.23
2023-03-27T16:41:44.067Z,3.20
2023-03-27T16:44:16.879Z,3.00
2023-03-27T16:46:49.935Z,3.00
2023-03-27T16:49:22.970Z,3.00
2023-03-27T16:51:55.914Z,3.00
2023-03-27T16:54:28.883Z,2.90
2023-03-27T16:57:02.071Z,2.90
2023-03-27T16:59:38.244Z,3.10
2023-03-27T17:02:12.294Z,2.90
2023-03-27T17:04:45.815Z,3.20
2023-03-27T17:07:18.903Z,2.80
2023-03-27T17:09:51.727Z,2.90
2023-03-27T17:12:24.887Z,2.90
2023-03-27T17:14:58.836Z,2.87
2023-03-27T17:17:32.341Z,2.80
2023-03-27T17:20:06.457Z,2.70
2023-03-27T17:22:39.785Z,2.63
2023-03-27T17:25:13.939Z,2.77
2023-03-27T17:27:47.009Z,2.70
2023-03-27T17:30:30.627Z,2.70
2023-03-27T17:32:54.289Z,2.80
2023-03-27T17:35:27.313Z,2.90
2023-03-27T17:38:00.302Z,2.60
2023-03-27T17:40:33.197Z,2.50
2023-03-27T17:43:06.157Z,2.50
2023-03-27T17:45:40.440Z,2.50
2023-03-27T17:48:13.830Z,2.50
2023-03-27T17:50:52.070Z,2.60
2023-03-27T17:53:21.849Z,2.40
2023-03-27T17:55:56.083Z,2.50
2023-03-27T17:58:30.646Z,2.47
2023-03-27T18:01:04.303Z,2.40
2023-03-27T18:03:37.229Z,2.30
2023-03-27T18:06:10.398Z,2.40
2023-03-27T18:08:43.522Z,2.40
2023-03-27T18:11:17.850Z,2.43
2023-03-27T18:13:51.986Z,2.50
2023-03-27T18:16:25.231Z,2.67
2023-03-27T18:18:59.392Z,2.73
2023-03-27T18:21:32.258Z,2.60
2023-03-27T18:24:05.265Z,2.50
2023-03-27T18:26:38.051Z,2.50
2023-03-27T18:29:11.008Z,2.70
2023-03-27T18:31:44.854Z,2.73
2023-03-27T18:34:18.717Z,2.70
2023-03-27T18:36:52.776Z,2.70
2023-03-27T18:39:25.521Z,2.53
2023-03-27T18:41:59.763Z,2.60
2023-03-27T18:44:33.063Z,2.60
2023-03-27T18:47:06.036Z,2.80
2023-03-27T18:49:38.711Z,2.70
2023-03-27T18:52:12.248Z,2.60
2023-03-27T18:54:45.318Z,2.70
2023-03-27T18:57:20.081Z,2.50
2023-03-27T18:59:57.619Z,2.50
2023-03-27T19:02:30.425Z,2.50
2023-03-27T19:05:04.114Z,2.60
2023-03-27T19:07:36.906Z,2.50
2023-03-27T19:10:12.151Z,2.60
2023-03-27T19:12:45.260Z,2.70
2023-03-27T19:15:20.160Z,2.70
2023-03-27T19:17:53.047Z,2.70
2023-03-27T19:20:26.369Z,2.60
2023-03-27T19:22:59.225Z,2.60
2023-03-27T19:25:31.980Z,2.60
2023-03-27T19:28:06.182Z,2.70
2023-03-27T19:30:39.037Z,3.00
2023-03-27T19:33:13.228Z,2.70
2023-03-27T19:35:45.994Z,2.87
2023-03-27T19:38:19.227Z,2.80
2023-03-27T19:40:52.033Z,2.70
2023-03-27T19:43:24.874Z,2.80
2023-03-27T19:46:15.124Z,2.70
2023-03-27T19:48:36.395Z,3.10
2023-03-27T19:51:09.695Z,2.97
2023-03-27T19:53:42.622Z,2.90
2023-03-27T19:56:15.473Z,2.90
2023-03-27T19:58:48.299Z,2.80
2023-03-27T20:01:21.649Z,2.83
2023-03-27T20:03:54.452Z,2.93
2023-03-27T20:06:27.963Z,2.90
2023-03-27T20:09:02.067Z,2.97
2023-03-27T20:11:34.884Z,3.10
2023-03-27T20:14:07.860Z,3.00
2023-03-27T20:16:41.702Z,3.00
2023-03-27T20:19:16.750Z,3.00
2023-03-27T20:21:49.713Z,3.00
2023-03-27T20:24:22.950Z,2.97
2023-03-27T20:26:57.290Z,2.90
2023-03-27T20:29:30.067Z,3.00
2023-03-27T20:32:02.854Z,3.00
2023-03-27T20:34:36.587Z,3.30
2023-03-27T20:37:10.599Z,3.20
2023-03-27T20:39:45.955Z,3.20
2023-03-27T20:42:20.421Z,3.20
2023-03-27T20:45:01.114Z,3.30
2023-03-27T20:47:39.994Z,3.40
2023-03-27T20:50:13.680Z,3.50
2023-03-27T20:52:50.326Z,3.40
2023-03-27T20:55:32.924Z,3.30
2023-03-27T20:57:57.200Z,3.30
2023-03-27T21:00:30.350Z,3.20
2023-03-27T21:03:03.653Z,3.20
2023-03-27T21:05:38.756Z,3.00
2023-03-27T21:08:11.829Z,3.10
2023-03-27T21:10:45.201Z,3.20
2023-03-27T21:13:18.138Z,3.03
2023-03-27T21:15:51.162Z,3.10
2023-03-27T21:18:24.006Z,2.80
2023-03-27T21:21:01.165Z,2.90
2023-03-27T21:23:34.917Z,2.70
2023-03-27T21:26:08.135Z,2.90
2023-03-27T21:28:40.840Z,2.90
2023-03-27T21:31:14.296Z,2.80
2023-03-27T21:33:47.295Z,2.90
2023-03-27T21:36:20.213Z,3.03
2023-03-27T21:38:53.346Z,3.20
2023-03-27T21:41:26.727Z,2.90
2023-03-27T21:43:59.965Z,3.10
2023-03-27T21:46:32.858Z,2.80
2023-03-27T21:49:07.171Z,2.90
2023-03-27T21:51:40.194Z,2.90
2023-03-27T21:54:12.824Z,2.97
2023-03-27T21:56:46.491Z,2.90
2023-03-27T21:59:19.510Z,2.90
2023-03-27T22:01:52.439Z,2.90
2023-03-27T22:04:25.146Z,3.10
2023-03-27T22:06:57.851Z,3.00
2023-03-27T22:09:31.040Z,3.00
2023-03-27T22:12:04.006Z,3.00
2023-03-27T22:14:37.029Z,3.00
2023-03-27T22:17:10.079Z,3.00
2023-03-27T22:19:43.174Z,3.10
2023-03-27T22:22:16.187Z,3.20
2023-03-27T22:24:51.614Z,3.10
2023-03-27T22:27:24.961Z,3.10
2023-03-27T22:29:57.865Z,3.07
2023-03-27T22:32:31.057Z,3.20
2023-03-27T22:35:03.994Z,3.30
2023-03-27T22:37:44.600Z,3.30
2023-03-27T22:40:17.885Z,3.10
2023-03-27T22:42:50.882Z,2.90
2023-03-27T22:45:23.953Z,3.23
2023-03-27T22:47:56.817Z,3.00
2023-03-27T22:50:29.811Z,3.10
2023-03-27T22:53:02.763Z,3.10
2023-03-27T22:55:35.804Z,3.30
2023-03-27T22:58:08.826Z,3.37
2023-03-27T23:00:41.745Z,3.40
2023-03-27T23:03:14.682Z,3.50
2023-03-27T23:05:49.040Z,3.60
2023-03-27T23:08:23.249Z,3.67
2023-03-27T23:11:00.871Z,3.60
2023-03-27T23:13:34.577Z,3.60
2023-03-27T23:16:07.646Z,3.50
2023-03-27T23:18:40.925Z,3.60
2023-03-27T23:21:15.682Z,3.20
2023-03-27T23:23:49.048Z,3.40
2023-03-27T23:26:22.579Z,3.30
2023-03-27T23:28:55.917Z,3.23
2023-03-27T23:31:28.961Z,3.30
2023-03-27T23:34:01.805Z,3.30
2023-03-27T23:36:35.492Z,3.10
2023-03-27T23:39:08.841Z,3.20
2023-03-27T23:41:42.012Z,3.30
2023-03-27T23:44:15.158Z,3.50
2023-03-27T23:46:48.284Z,3.60
2023-03-27T23:49:25.319Z,3.40
2023-03-27T23:51:59.379Z,3.43
2023-03-27T23:54:32.328Z,3.43
2023-03-27T23:57:05.328Z,3.47
2023-03-27T23:59:38.449Z,3.10
